Date,TemperatureHighF,TemperatureAvgF,TemperatureLowF,DewpointHighF,DewpointAvgF,DewpointLowF,HumidityHigh,HumidityAvg,HumidityLow,PressureMaxIn,PressureMinIn,WindSpeedMaxMPH,WindSpeedAvgMPH,GustSpeedMaxMPH,PrecipitationSumIn
2013-9-1,87,74,69,74,68,-100,100,84,54,0.00,40.00,0,0,9,0.31
2013-9-2,82,74,67,73,71,67,100,88,70,0.00,40.00,0,0,0,0.18
2013-9-3,86,74,66,71,66,61,100,80,49,0.00,40.00,0,0,13,1.28
2013-9-4,84,72,61,65,62,59,99,77,43,0.00,40.00,0,0,0,0.02
2013-9-5,83,70,60,63,62,60,99,79,50,0.00,40.00,0,0,0,0.00
2013-9-6,86,72,61,65,63,59,99,76,42,0.00,40.00,2,0,8,0.00
2013-9-7,86,72,60,67,64,60,99,79,50,0.00,40.00,0,0,0,0.00
2013-9-8,87,73,66,70,64,-100,97,78,49,0.00,40.00,0,0,0,0.00
2013-9-9,88,75,66,70,68,65,99,79,50,0.00,40.00,0,0,0,0.00
2013-9-10,89,78,67,70,68,66,98,74,48,0.00,40.00,0,0,0,0.00
2013-9-11,90,78,69,71,69,66,98,77,46,0.00,40.00,0,0,0,0.00
2013-9-12,84,74,68,72,69,66,99,85,62,0.00,40.00,0,0,19,0.42
2013-9-13,78,69,61,68,59,49,100,73,42,0.00,40.00,0,0,0,0.41
2013-9-14,76,63,53,55,50,47,90,65,36,0.00,40.00,6,1,15,0.00
2013-9-15,81,63,53,62,53,-100,96,77,42,0.00,40.00,0,0,0,0.00
2013-9-16,80,68,59,66,61,58,99,80,54,0.00,40.00,0,0,0,0.00
2013-9-17,81,69,61,60,57,53,84,67,47,0.00,40.00,7,2,14,0.00
2013-9-18,65,62,60,56,56,55,85,80,74,0.00,40.00,2,0,8,0.00
2013-9-19,82,70,63,68,64,61,96,81,57,0.00,40.00,0,0,0,0.00
2013-9-20,85,72,62,67,64,62,99,80,48,0.00,40.00,0,0,0,0.00
2013-9-21,68,66,61,66,64,59,98,95,86,0.00,40.00,0,0,6,1.30
2013-9-22,76,63,54,58,53,-100,100,77,44,0.00,40.00,4,1,9,0.01
2013-9-23,79,64,52,61,56,51,96,77,48,0.00,40.00,2,0,8,0.00
2013-9-24,80,67,57,64,59,56,98,77,45,0.00,40.00,5,1,10,0.00
2013-9-25,71,66,63,65,64,61,97,92,75,0.00,40.00,0,0,4,0.22
2013-9-26,78,68,59,63,61,58,99,82,53,0.00,40.00,0,0,0,0.01
2013-9-27,81,66,55,60,56,52,99,77,36,0.00,40.00,0,0,0,0.00
2013-9-28,78,64,55,60,57,54,98,79,48,0.00,40.00,0,0,0,0.00
2013-9-29,72,62,54,61,55,-100,98,83,62,0.00,40.00,0,0,8,0.00
2013-9-30,76,66,57,61,59,55,99,80,51,0.00,40.00,3,0,8,0.00